Time;durP1;ratioP1;P1;durP2;ratioP2;P2;SDS_P1;SDS_P2;PMS_P1;PMS_P2;Temp;Humidity;BMP_temperature;BMP_pressure;BME280_temperature;BME280_humidity;BME280_pressure;Samples;Min_cycle;Max_cycle;Signal;HPM_P1;HPM_P2
2023/10/30 00:00:34;;;;;;;3.50;1.10;;;;;;;8.11;100.00;99789.81;5091788;28;20052;-77
2023/10/30 00:03:00;;;;;;;5.13;1.10;;;;;;;8.05;100.00;99792.22;5092280;28;20479;-77
2023/10/30 00:05:25;;;;;;;7.18;1.38;;;;;;;7.96;100.00;99788.66;5090720;28;20054;-77
2023/10/30 00:07:50;;;;;;;6.03;1.17;;;;;;;7.95;100.00;99793.09;5092103;28;20178;-76
2023/10/30 00:10:16;;;;;;;4.40;1.50;;;;;;;7.99;100.00;99798.13;5091488;28;20044;-76
2023/10/30 00:12:41;;;;;;;6.18;1.15;;;;;;;7.96;100.00;99796.59;5091460;28;20499;-76
2023/10/30 00:15:07;;;;;;;2.75;1.05;;;;;;;7.98;100.00;99794.63;5091987;28;20051;-76
2023/10/30 00:17:32;;;;;;;2.95;1.20;;;;;;;8.03;100.00;99800.31;5092313;28;20036;-75
2023/10/30 00:19:59;;;;;;;5.85;1.10;;;;;;;8.00;100.00;99805.06;5091758;28;20464;-77
2023/10/30 00:22:24;;;;;;;1.92;1.08;;;;;;;7.92;100.00;99801.34;5091416;28;20058;-77
2023/10/30 00:24:50;;;;;;;3.00;1.20;;;;;;;7.89;100.00;99814.06;5090019;28;20036;-76
2023/10/30 00:27:16;;;;;;;9.48;1.35;;;;;;;7.88;100.00;99818.53;5091329;28;20038;-76
2023/10/30 00:29:42;;;;;;;7.07;1.20;;;;;;;7.87;100.00;99819.50;5091583;28;20419;-76
2023/10/30 00:32:08;;;;;;;7.32;1.30;;;;;;;7.83;100.00;99834.00;5091935;28;20059;-77
2023/10/30 00:34:34;;;;;;;2.67;1.23;;;;;;;7.78;100.00;99830.97;5091530;28;20067;-77
2023/10/30 00:36:59;;;;;;;3.63;1.27;;;;;;;7.69;100.00;99847.72;5091936;28;20035;-76
2023/10/30 00:39:25;;;;;;;2.92;1.38;;;;;;;7.63;100.00;99845.63;5091478;28;20356;-75
2023/10/30 00:41:51;;;;;;;8.57;1.98;;;;;;;7.62;100.00;99850.09;5089973;28;20477;-76
2023/10/30 00:44:16;;;;;;;6.30;1.50;;;;;;;7.54;100.00;99850.84;5091269;28;20036;-76
2023/10/30 00:46:41;;;;;;;3.60;1.10;;;;;;;7.56;100.00;99856.81;5091718;28;20080;-77
2023/10/30 00:49:07;;;;;;;5.18;1.25;;;;;;;7.63;100.00;99854.44;5090931;28;20082;-76
2023/10/30 00:51:32;;;;;;;9.20;1.75;;;;;;;7.63;100.00;99862.38;5091879;28;20035;-77
2023/10/30 00:53:58;;;;;;;5.95;1.17;;;;;;;7.61;100.00;99864.31;5090873;28;20107;-77
2023/10/30 00:56:23;;;;;;;5.28;1.40;;;;;;;7.63;100.00;99864.16;5091644;28;20428;-89
2023/10/30 00:58:48;;;;;;;7.18;1.50;;;;;;;7.62;100.00;99868.66;5091421;28;20145;-76
2023/10/30 01:01:16;;;;;;;5.68;1.33;;;;;;;7.57;100.00;99861.13;5090971;28;20337;-76
2023/10/30 01:03:42;;;;;;;6.30;1.38;;;;;;;7.57;100.00;99861.13;5091055;28;20043;-76
2023/10/30 01:06:07;;;;;;;3.08;1.23;;;;;;;7.54;100.00;99864.06;5091221;28;20349;-78
2023/10/30 01:08:33;;;;;;;7.50;1.30;;;;;;;7.56;100.00;99859.47;5090847;28;20047;-79
2023/10/30 01:10:58;;;;;;;9.02;1.73;;;;;;;7.56;100.00;99866.56;5090837;28;20028;-76
2023/10/30 01:13:24;;;;;;;6.05;1.30;;;;;;;7.58;100.00;99856.66;5090563;28;20039;-77
2023/10/30 01:15:53;;;;;;;8.20;1.52;;;;;;;7.59;100.00;99866.28;5090723;28;20115;-77
2023/10/30 01:18:19;;;;;;;10.43;1.80;;;;;;;7.58;100.00;99856.66;5090951;28;20089;-77
2023/10/30 01:20:44;;;;;;;9.80;1.85;;;;;;;7.59;100.00;99861.81;5091258;28;20044;-76
2023/10/30 01:23:10;;;;;;;6.18;1.63;;;;;;;7.57;100.00;99863.78;5095149;28;20434;-78
2023/10/30 01:25:35;;;;;;;8.43;1.55;;;;;;;7.56;100.00;99855.97;5093904;28;20024;-76
2023/10/30 01:28:01;;;;;;;6.93;1.83;;;;;;;7.52;100.00;99855.41;5094682;28;20464;-76
2023/10/30 01:30:26;;;;;;;10.13;1.95;;;;;;;7.49;100.00;99854.88;5095034;28;20414;-76
2023/10/30 01:32:51;;;;;;;10.13;2.10;;;;;;;7.46;100.00;99852.53;5094749;28;20047;-76
2023/10/30 01:35:17;;;;;;;12.57;2.83;;;;;;;7.44;100.00;99852.66;5094757;28;20354;-79
2023/10/30 01:37:42;;;;;;;10.18;1.85;;;;;;;7.46;100.00;99865.75;5094812;28;20491;-76
2023/10/30 01:40:09;;;;;;;14.02;2.42;;;;;;;7.47;100.00;99857.66;5094288;28;20039;-76
2023/10/30 01:42:34;;;;;;;11.85;2.00;;;;;;;7.49;100.00;99863.66;5094598;28;20181;-76
2023/10/30 01:45:00;;;;;;;11.73;1.98;;;;;;;7.47;100.00;99868.25;5093239;28;20440;-75
2023/10/30 01:47:26;;;;;;;10.52;2.40;;;;;;;7.44;100.00;99868.53;5094185;28;20036;-76
2023/10/30 01:49:52;;;;;;;12.57;2.22;;;;;;;7.38;100.00;99877.88;5094992;28;20073;-76
2023/10/30 01:52:20;;;;;;;6.97;2.25;;;;;;;7.40;100.00;99870.66;5094320;28;20097;-78
2023/10/30 01:54:47;;;;;;;16.92;2.20;;;;;;;7.43;100.00;99885.41;5093030;28;20396;-76
2023/10/30 01:57:15;;;;;;;9.05;2.45;;;;;;;7.46;100.00;99879.00;5094542;28;20353;-77
2023/10/30 01:59:41;;;;;;;7.65;2.20;;;;;;;7.44;100.00;99883.59;5094510;28;20126;-76
2023/10/30 02:02:07;;;;;;;10.40;2.38;;;;;;;7.44;100.00;99886.25;5094287;28;20048;-77
2023/10/30 02:04:33;;;;;;;12.18;2.45;;;;;;;7.43;100.00;99895.97;5093912;28;20046;-86
2023/10/30 02:06:59;;;;;;;11.13;2.38;;;;;;;7.43;100.00;99895.97;5094836;28;20060;-76
2023/10/30 02:09:24;;;;;;;12.38;1.95;;;;;;;7.43;100.00;99895.97;5092629;28;20032;-76
2023/10/30 02:11:50;;;;;;;16.67;2.20;;;;;;;7.39;100.00;99892.78;5093873;28;20062;-76
2023/10/30 02:14:16;;;;;;;10.30;1.75;;;;;;;7.40;100.00;99897.13;5094150;28;20036;-76
2023/10/30 02:16:41;;;;;;;14.73;2.05;;;;;;;7.40;100.00;99898.91;5094064;28;20043;-76
2023/10/30 02:19:16;;;;;;;13.38;2.40;;;;;;;7.41;100.00;99897.94;5092626;28;20405;-76
2023/10/30 02:21:41;;;;;;;9.45;1.85;;;;;;;7.41;100.00;99906.72;5094358;28;20120;-75
2023/10/30 02:24:08;;;;;;;12.23;2.40;;;;;;;7.38;100.00;99899.06;5093816;28;20036;-75
2023/10/30 02:26:33;;;;;;;11.00;1.98;;;;;;;7.39;100.00;99897.25;5093741;28;20171;-75
2023/10/30 02:29:01;;;;;;;13.02;2.65;;;;;;;7.39;100.00;99903.38;5093623;28;20639;-76
2023/10/30 02:31:26;;;;;;;10.75;1.85;;;;;;;7.47;100.00;99902.66;5093887;28;20423;-76
2023/10/30 02:33:52;;;;;;;14.82;2.90;;;;;;;7.48;100.00;99898.19;5093122;28;20032;-76
2023/10/30 02:36:17;;;;;;;8.85;2.47;;;;;;;7.51;100.00;99900.56;5092229;28;20032;-76
2023/10/30 02:38:43;;;;;;;8.93;2.05;;;;;;;7.49;100.00;99910.47;5092360;28;20058;-76
2023/10/30 02:41:08;;;;;;;12.02;1.88;;;;;;;7.54;100.00;99911.72;5093317;28;20096;-76
2023/10/30 02:43:33;;;;;;;8.70;1.95;;;;;;;7.57;100.00;99916.72;5093613;28;20040;-76
2023/10/30 02:45:59;;;;;;;7.82;1.98;;;;;;;7.62;100.00;99907.53;5093030;28;20040;-77
2023/10/30 02:48:24;;;;;;;9.65;2.00;;;;;;;7.63;100.00;99917.97;5093402;28;20032;-78
2023/10/30 02:50:50;;;;;;;8.20;2.25;;;;;;;7.64;100.00;99909.03;5093166;28;20151;-77
2023/10/30 02:53:15;;;;;;;14.60;2.58;;;;;;;7.68;100.00;99915.72;5091472;28;20545;-76
2023/10/30 02:55:41;;;;;;;8.68;1.83;;;;;;;7.69;100.00;99914.75;5091663;28;20058;-77
2023/10/30 02:58:06;;;;;;;14.63;2.15;;;;;;;7.72;100.00;99926.88;5092011;28;20483;-77
2023/10/30 03:00:31;;;;;;;9.27;1.58;;;;;;;7.73;100.00;99933.81;5093338;28;20046;-76
2023/10/30 03:02:57;;;;;;;10.60;1.98;;;;;;;7.71;100.00;99930.50;5093186;28;20054;-77
2023/10/30 03:05:22;;;;;;;11.98;2.00;;;;;;;7.70;100.00;99924.38;5092101;28;20060;-76
2023/10/30 03:07:48;;;;;;;12.60;1.95;;;;;;;7.66;100.00;99924.78;5093033;28;20028;-76
2023/10/30 03:10:13;;;;;;;8.57;1.77;;;;;;;7.66;100.00;99933.56;5092994;28;20504;-76
2023/10/30 03:12:38;;;;;;;8.15;1.55;;;;;;;7.66;100.00;99936.22;5092997;28;20035;-76
2023/10/30 03:15:04;;;;;;;13.18;2.28;;;;;;;7.70;100.00;99932.31;5093185;28;20027;-76
2023/10/30 03:17:30;;;;;;;10.38;1.95;;;;;;;7.69;100.00;99927.16;5092990;28;20056;-76
2023/10/30 03:19:55;;;;;;;19.13;3.22;;;;;;;7.66;100.00;99922.13;5092643;28;20059;-76
2023/10/30 03:22:22;;;;;;;16.80;2.15;;;;;;;7.68;100.00;99928.13;5091399;28;20032;-76
2023/10/30 03:24:47;;;;;;;12.25;2.00;;;;;;;7.73;100.00;99933.81;5092978;28;20165;-76
2023/10/30 03:27:12;;;;;;;13.48;2.42;;;;;;;7.71;100.00;99925.19;5092479;28;20071;-76
2023/10/30 03:29:39;;;;;;;12.80;2.38;;;;;;;7.71;100.00;99925.19;5092552;28;20405;-77
2023/10/30 03:32:04;;;;;;;16.58;2.72;;;;;;;7.67;100.00;99926.47;5092238;28;20379;-75
2023/10/30 03:34:30;;;;;;;9.30;2.13;;;;;;;7.60;100.00;99931.50;5092230;28;20028;-76
2023/10/30 03:36:55;;;;;;;13.10;2.25;;;;;;;7.56;100.00;99924.81;5092566;28;20036;-76
2023/10/30 03:39:21;;;;;;;8.80;2.10;;;;;;;7.51;100.00;99932.31;5090882;28;20036;-75
2023/10/30 03:41:46;;;;;;;7.47;1.98;;;;;;;7.48;100.00;99922.03;5092078;28;20371;-78
2023/10/30 03:44:11;;;;;;;12.18;2.13;;;;;;;7.48;100.00;99927.31;5091977;28;20032;-76
2023/10/30 03:46:37;;;;;;;18.05;2.28;;;;;;;7.47;100.00;99925.66;5092424;28;20028;-77
2023/10/30 03:49:02;;;;;;;14.45;1.70;;;;;;;7.52;100.00;99926.06;5090701;28;20445;-77
2023/10/30 03:51:28;;;;;;;10.38;2.08;;;;;;;7.50;100.00;99936.78;5092179;28;20024;-78
2023/10/30 03:53:53;;;;;;;17.00;1.90;;;;;;;7.49;100.00;99934.28;5092042;28;20105;-77
2023/10/30 03:56:18;;;;;;;16.50;2.35;;;;;;;7.46;100.00;99935.41;5092582;28;20051;-78
2023/10/30 03:58:44;;;;;;;17.40;2.45;;;;;;;7.44;100.00;99939.19;5092133;28;20381;-78
2023/10/30 04:01:09;;;;;;;25.17;2.00;;;;;;;7.45;100.00;99940.84;5091886;28;20065;-76
2023/10/30 04:03:35;;;;;;;11.35;2.00;;;;;;;7.45;100.00;99935.53;5091643;28;20106;-76
2023/10/30 04:06:02;;;;;;;13.07;2.17;;;;;;;7.44;100.00;99931.25;5091821;28;20101;-76
2023/10/30 04:08:28;;;;;;;12.40;1.80;;;;;;;7.43;100.00;99927.75;5091600;28;20052;-77
2023/10/30 04:10:53;;;;;;;12.80;2.00;;;;;;;7.43;100.00;99929.56;5091888;28;20458;-78
2023/10/30 04:13:18;;;;;;;13.23;2.00;;;;;;;7.43;100.00;99929.56;5091635;28;20028;-77
2023/10/30 04:15:44;;;;;;;15.85;1.92;;;;;;;7.46;100.00;99931.94;5091734;28;20341;-77
2023/10/30 04:18:10;;;;;;;16.50;2.30;;;;;;;7.45;100.00;99922.31;5091701;28;20107;-77
2023/10/30 04:20:35;;;;;;;12.32;2.70;;;;;;;7.47;100.00;99923.03;5090205;28;20071;-77
2023/10/30 04:23:00;;;;;;;12.50;2.53;;;;;;;7.53;100.00;99927.75;5091414;28;20087;-77
2023/10/30 04:25:26;;;;;;;14.77;2.72;;;;;;;7.56;100.00;99930.94;5089846;28;20154;-77
2023/10/30 04:27:53;;;;;;;12.93;2.00;;;;;;;7.58;100.00;99931.66;5091856;28;20032;-88
2023/10/30 04:30:19;;;;;;;16.05;2.70;;;;;;;7.57;100.00;99929.13;5091625;28;20032;-77
2023/10/30 04:32:45;;;;;;;16.27;2.53;;;;;;;7.56;100.00;99933.56;5091711;28;20032;-77
2023/10/30 04:35:10;;;;;;;12.95;2.05;;;;;;;7.58;100.00;99936.09;5091932;28;20070;-77
2023/10/30 04:37:36;;;;;;;16.25;2.88;;;;;;;7.57;100.00;99924.66;5090045;28;20474;-77
2023/10/30 04:40:01;;;;;;;11.48;2.17;;;;;;;7.57;100.00;99924.66;5091532;28;20463;-76
2023/10/30 04:42:28;;;;;;;9.48;2.22;;;;;;;7.61;100.00;99921.72;5091216;28;20038;-75
2023/10/30 04:44:55;;;;;;;12.63;2.55;;;;;;;7.63;100.00;99933.88;5091482;28;20472;-75
2023/10/30 04:47:20;;;;;;;12.10;2.17;;;;;;;7.70;100.00;99924.38;5091088;28;20081;-76
2023/10/30 04:49:46;;;;;;;17.70;2.85;;;;;;;7.73;100.00;99929.38;5091234;28;20115;-75
2023/10/30 04:52:11;;;;;;;18.50;2.55;;;;;;;7.74;100.00;99931.03;5091307;28;20321;-76
2023/10/30 04:54:37;;;;;;;15.15;2.45;;;;;;;7.74;100.00;99938.16;5091008;28;20138;-76
2023/10/30 04:57:03;;;;;;;11.20;2.03;;;;;;;7.69;100.00;99948.34;5090340;28;20031;-76
2023/10/30 04:59:28;;;;;;;18.20;2.67;;;;;;;7.67;100.00;99942.34;5091061;28;20039;-75
2023/10/30 05:01:54;;;;;;;15.18;2.83;;;;;;;7.71;100.00;99943.75;5090767;28;20141;-75
2023/10/30 05:04:19;;;;;;;16.52;2.70;;;;;;;7.72;100.00;99948.06;5091445;28;20449;-76
2023/10/30 05:06:46;;;;;;;16.10;2.60;;;;;;;7.76;100.00;99939.69;5090877;28;20046;-75
2023/10/30 05:09:12;;;;;;;10.95;2.58;;;;;;;7.81;100.00;99939.25;5090952;28;20070;-76
2023/10/30 05:11:38;;;;;;;11.88;2.25;;;;;;;7.86;100.00;99944.13;5091360;28;20036;-78
2023/10/30 05:14:04;;;;;;;18.63;2.88;;;;;;;7.89;100.00;99949.13;5090721;28;20405;-75
2023/10/30 05:16:29;;;;;;;7.93;1.95;;;;;;;7.87;100.00;99933.38;5091149;28;20111;-75
2023/10/30 05:18:55;;;;;;;11.48;1.98;;;;;;;7.83;100.00;99932.00;5089366;28;20055;-76
2023/10/30 05:21:20;;;;;;;8.68;1.95;;;;;;;7.81;100.00;99938.41;5090791;28;20141;-75
2023/10/30 05:23:45;;;;;;;12.10;2.28;;;;;;;7.84;100.00;99922.25;5089155;28;20479;-75
2023/10/30 05:26:11;;;;;;;15.25;2.20;;;;;;;7.82;100.00;99926.84;5089300;28;20040;-77
2023/10/30 05:28:37;;;;;;;12.90;2.33;;;;;;;7.82;100.00;99935.63;5089837;28;20055;-77
2023/10/30 05:31:06;;;;;;;13.25;2.42;;;;;;;7.81;100.00;99930.47;5090772;28;20082;-77
2023/10/30 05:33:31;;;;;;;12.20;2.17;;;;;;;7.76;100.00;99929.09;5090606;28;20024;-77
2023/10/30 05:35:57;;;;;;;15.27;2.60;;;;;;;7.74;100.00;99927.56;5090531;28;20044;-77
2023/10/30 05:38:22;;;;;;;9.85;2.13;;;;;;;7.76;100.00;99934.41;5090740;28;20035;-77
2023/10/30 05:40:48;;;;;;;15.18;3.00;;;;;;;7.79;100.00;99929.78;5090984;28;20042;-77
2023/10/30 05:43:13;;;;;;;13.65;2.97;;;;;;;7.79;100.00;99929.78;5090417;28;20036;-78
2023/10/30 05:45:39;;;;;;;18.85;2.63;;;;;;;7.75;100.00;99929.25;5089612;28;20457;-77
2023/10/30 05:48:05;;;;;;;14.52;2.08;;;;;;;7.73;100.00;99939.97;5091073;28;20040;-78
2023/10/30 05:50:30;;;;;;;16.77;2.60;;;;;;;7.74;100.00;99940.81;5090511;28;20392;-77
2023/10/30 05:52:55;;;;;;;17.23;2.70;;;;;;;7.79;100.00;99929.78;5088855;28;20055;-77
2023/10/30 05:55:21;;;;;;;11.23;2.20;;;;;;;7.74;100.00;99917.78;5090265;28;20083;-75
2023/10/30 05:57:46;;;;;;;16.10;2.95;;;;;;;7.74;100.00;99928.38;5090454;28;20024;-77
2023/10/30 06:00:13;;;;;;;13.65;2.70;;;;;;;7.72;100.00;99927.72;5090463;28;20438;-77
2023/10/30 06:02:38;;;;;;;8.98;2.17;;;;;;;7.67;100.00;99929.09;5090526;28;20039;-77
2023/10/30 06:05:06;;;;;;;20.80;2.95;;;;;;;7.66;100.00;99944.16;5090400;28;20032;-78
2023/10/30 06:07:32;;;;;;;14.55;2.60;;;;;;;7.67;100.00;99926.47;5092232;28;20063;-76
2023/10/30 06:09:58;;;;;;;18.58;2.85;;;;;;;7.70;100.00;99931.47;5094202;28;20060;-77
2023/10/30 06:12:23;;;;;;;11.85;2.50;;;;;;;7.67;100.00;99951.13;5093659;28;20051;-79
2023/10/30 06:14:48;;;;;;;17.20;3.15;;;;;;;7.71;100.00;99957.81;5092793;28;20066;-77
2023/10/30 06:17:14;;;;;;;11.85;2.33;;;;;;;7.75;100.00;99961.84;5093947;28;20122;-78
2023/10/30 06:19:40;;;;;;;24.30;3.63;;;;;;;7.80;100.00;99955.28;5094027;28;20054;-77
2023/10/30 06:22:06;;;;;;;19.42;2.60;;;;;;;7.80;100.00;99957.94;5093913;28;20185;-77
2023/10/30 06:24:32;;;;;;;17.50;2.53;;;;;;;7.81;100.00;99957.78;5092400;28;20063;-77
2023/10/30 06:26:57;;;;;;;14.52;2.88;;;;;;;7.78;100.00;99963.38;5092348;28;20039;-77
2023/10/30 06:29:23;;;;;;;13.40;2.65;;;;;;;7.81;100.00;99964.88;5094132;28;20035;-77
2023/10/30 06:31:48;;;;;;;18.52;2.78;;;;;;;7.88;100.00;99945.66;5093940;28;20074;-77
2023/10/30 06:34:13;;;;;;;15.52;3.03;;;;;;;7.92;100.00;99948.84;5093572;28;20108;-77
2023/10/30 06:36:40;;;;;;;15.45;3.53;;;;;;;8.01;100.00;99957.75;5093640;28;20055;-74
2023/10/30 06:39:05;;;;;;;13.50;2.42;;;;;;;7.98;100.00;99952.75;5093308;28;20040;-77
2023/10/30 06:41:30;;;;;;;12.68;2.83;;;;;;;7.99;100.00;99959.72;5075239;28;20486;-77
2023/10/30 06:43:56;;;;;;;20.35;2.63;;;;;;;7.98;100.00;99961.50;5092100;28;20039;-77
2023/10/30 06:46:21;;;;;;;13.52;3.10;;;;;;;8.01;100.00;99965.69;5093541;28;20107;-77
2023/10/30 06:48:47;;;;;;;16.30;2.95;;;;;;;7.99;100.00;99960.53;5091826;28;20089;-77
2023/10/30 06:51:12;;;;;;;21.10;3.25;;;;;;;7.96;100.00;99963.47;5091942;28;20459;-75
2023/10/30 06:53:37;;;;;;;23.23;3.53;;;;;;;7.92;100.00;99959.44;5093468;28;20464;-78
2023/10/30 06:56:03;;;;;;;16.13;2.85;;;;;;;7.90;100.00;99956.94;5091484;28;20063;-76
2023/10/30 06:58:28;;;;;;;14.80;2.72;;;;;;;7.95;100.00;99959.16;5093083;28;20051;-76
2023/10/30 07:01:04;;;;;;;14.15;2.45;;;;;;;7.97;100.00;99962.47;5092027;28;20039;-77
2023/10/30 07:03:30;;;;;;;16.27;2.55;;;;;;;7.97;100.00;99973.06;5093678;28;20040;-77
2023/10/30 07:05:56;;;;;;;10.25;2.47;;;;;;;7.96;100.00;99982.03;5093102;28;20119;-76
2023/10/30 07:08:22;;;;;;;21.08;2.88;;;;;;;7.95;100.00;99989.13;5093209;28;20039;-76
2023/10/30 07:10:47;;;;;;;14.48;2.70;;;;;;;7.97;100.00;99988.16;5091345;28;20341;-75
2023/10/30 07:13:13;;;;;;;12.82;3.47;;;;;;;7.99;100.00;100002.94;5093090;28;20504;-74
2023/10/30 07:15:38;;;;;;;17.50;3.53;;;;;;;8.07;100.00;100010.16;5093202;28;20294;-78
2023/10/30 07:18:03;;;;;;;17.60;3.42;;;;;;;8.17;100.00;100004.84;5092524;28;20032;-75
2023/10/30 07:20:29;;;;;;;22.25;2.97;;;;;;;8.23;100.00;99994.50;5092098;28;20521;-75
2023/10/30 07:22:54;;;;;;;21.50;3.15;;;;;;;8.32;100.00;100005.22;5092329;28;20043;-75
2023/10/30 07:25:20;;;;;;;16.95;3.30;;;;;;;8.37;100.00;100014.38;5092404;28;20025;-76
2023/10/30 07:27:45;;;;;;;21.33;2.83;;;;;;;8.44;100.00;100012.84;5093700;28;20089;-76
2023/10/30 07:30:11;;;;;;;14.63;2.80;;;;;;;8.50;100.00;100016.75;5092471;28;20471;-75
2023/10/30 07:32:37;;;;;;;17.85;2.72;;;;;;;8.49;100.00;100012.41;5092478;28;20421;-75
2023/10/30 07:35:03;;;;;;;19.95;3.08;;;;;;;8.51;100.00;100014.91;5092042;28;20512;-76
2023/10/30 07:37:28;;;;;;;15.32;3.85;;;;;;;8.54;100.00;100006.69;5092282;28;20138;-76
2023/10/30 07:39:54;;;;;;;19.00;3.47;;;;;;;8.57;100.00;100017.84;5092422;28;20126;-77
2023/10/30 07:42:19;;;;;;;22.60;3.33;;;;;;;8.62;100.00;100020.88;5092260;28;20035;-76
2023/10/30 07:44:45;;;;;;;17.13;3.15;;;;;;;8.62;100.00;100026.19;5090990;28;20074;-79
2023/10/30 07:47:10;;;;;;;15.63;3.17;;;;;;;8.58;100.00;100030.13;5092271;28;20395;-77
2023/10/30 07:49:35;;;;;;;17.35;3.20;;;;;;;8.59;100.00;100041.56;5090365;28;20028;-77
2023/10/30 07:52:01;;;;;;;14.13;2.83;;;;;;;8.65;100.00;100046.28;5090534;28;20058;-79
2023/10/30 07:54:26;;;;;;;11.85;2.83;;;;;;;8.70;100.00;100038.69;5091590;28;20464;-83
2023/10/30 07:56:51;;;;;;;17.25;2.92;;;;;;;8.74;100.00;100048.03;5091799;28;20039;-79
2023/10/30 07:59:17;;;;;;;15.73;3.15;;;;;;;8.78;100.00;100043.31;5091929;28;20073;-80
2023/10/30 08:01:44;;;;;;;10.70;2.53;;;;;;;8.84;100.00;100034.75;5092186;28;20074;-81
2023/10/30 08:04:09;;;;;;;16.40;3.78;;;;;;;8.94;100.00;100034.69;5091466;28;20202;-81
2023/10/30 08:06:35;;;;;;;12.73;3.75;;;;;;;9.02;100.00;100024.19;5091666;28;20445;-81
2023/10/30 08:09:00;;;;;;;13.85;3.00;;;;;;;9.10;100.00;100020.78;5090242;28;20114;-80
2023/10/30 08:11:26;;;;;;;15.05;2.85;;;;;;;9.21;100.00;100014.41;5091276;28;20051;-76
2023/10/30 08:13:52;;;;;;;16.98;3.10;;;;;;;9.33;100.00;100018.50;5091218;28;20028;-80
2023/10/30 08:16:17;;;;;;;16.13;3.15;;;;;;;9.47;100.00;100009.19;5091436;28;20032;-78
2023/10/30 08:18:42;;;;;;;10.57;2.55;;;;;;;9.64;100.00;100005.72;5091502;28;20131;-79
2023/10/30 08:21:08;;;;;;;18.33;3.30;;;;;;;9.79;100.00;99998.03;5090174;28;20047;-77
2023/10/30 08:23:36;;;;;;;15.45;2.90;;;;;;;9.91;100.00;100003.06;5091524;28;20039;-76
2023/10/30 08:26:02;;;;;;;11.13;2.67;;;;;;;10.02;100.00;100005.47;5091333;28;20380;-78
2023/10/30 08:28:28;;;;;;;23.48;2.95;;;;;;;10.13;100.00;99999.88;5090980;28;20101;-82
2023/10/30 08:30:53;;;;;;;16.80;3.10;;;;;;;10.22;100.00;100011.41;5089190;28;20464;-78
2023/10/30 08:33:18;;;;;;;11.80;2.58;;;;;;;10.26;100.00;100015.44;5091208;28;20482;-79
2023/10/30 08:35:46;;;;;;;15.63;3.63;;;;;;;10.29;100.00;100008.97;5090918;28;20453;-77
2023/10/30 08:38:12;;;;;;;13.38;2.80;;;;;;;10.30;100.00;100021.25;5090126;28;20363;-79
2023/10/30 08:40:37;;;;;;;16.13;2.78;;;;;;;10.30;100.00;100015.94;5091122;28;20032;-78
2023/10/30 08:43:03;;;;;;;15.70;3.05;;;;;;;10.30;100.00;100022.13;5091143;28;20333;-78
2023/10/30 08:45:28;;;;;;;17.00;2.90;;;;;;;10.28;100.00;100037.38;5091216;28;20055;-81
2023/10/30 08:47:54;;;;;;;15.57;2.63;;;;;;;10.30;100.00;100039.88;5090788;28;20118;-77
2023/10/30 08:50:20;;;;;;;11.48;2.95;;;;;;;10.32;100.00;100043.22;5090553;28;20065;-79
2023/10/30 08:52:47;;;;;;;24.13;3.42;;;;;;;10.31;100.00;100031.72;5090410;28;20058;-77
2023/10/30 08:55:13;;;;;;;16.23;3.00;;;;;;;10.34;100.00;100044.75;5090776;28;20146;-81
2023/10/30 08:57:38;;;;;;;15.70;2.50;;;;;;;10.37;100.00;100040.94;5089516;28;20082;-79
2023/10/30 09:00:07;;;;;;;11.45;2.28;;;;;;;10.41;100.00;100047.63;5090925;28;20119;-81
2023/10/30 09:02:33;;;;;;;18.90;2.72;;;;;;;10.49;100.00;100050.31;5089192;28;20039;-79
2023/10/30 09:04:59;;;;;;;22.25;2.53;;;;;;;10.58;100.00;100056.53;5090374;28;20432;-78
2023/10/30 09:07:24;;;;;;;16.08;3.10;;;;;;;10.65;100.00;100051.41;5090932;28;20119;-80
2023/10/30 09:09:50;;;;;;;16.40;2.53;;;;;;;10.69;100.00;100058.06;5090635;28;20039;-79
2023/10/30 09:12:15;;;;;;;12.02;2.42;;;;;;;10.70;100.00;100057.94;5090573;28;20107;-78
2023/10/30 09:14:41;;;;;;;22.20;2.95;;;;;;;10.76;100.00;100057.28;5090540;28;20051;-80
2023/10/30 09:17:08;;;;;;;9.35;2.17;;;;;;;10.87;100.00;100061.50;5090380;28;20436;-79
2023/10/30 09:19:37;;;;;;;12.13;2.45;;;;;;;11.02;100.00;100050.25;5090445;28;20085;-82
2023/10/30 09:22:03;;;;;;;11.60;2.40;;;;;;;11.10;100.00;100034.28;5088940;28;20407;-78
2023/10/30 09:24:28;;;;;;;12.68;2.40;;;;;;;11.10;100.00;100042.28;5090455;28;20047;-82
2023/10/30 09:26:54;;;;;;;25.83;3.10;;;;;;;11.14;100.00;100034.78;5090477;28;20451;-78
2023/10/30 09:29:19;;;;;;;17.17;2.83;;;;;;;11.29;100.00;100049.97;5090088;28;20020;-80
2023/10/30 09:31:44;;;;;;;7.55;2.08;;;;;;;11.38;100.00;100042.00;5090239;28;20027;-79
2023/10/30 09:34:11;;;;;;;12.15;2.67;;;;;;;11.47;100.00;100036.53;5090793;28;20044;-79
2023/10/30 09:36:36;;;;;;;14.40;2.40;;;;;;;11.56;100.00;100032.03;5090701;28;20039;-81
2023/10/30 09:39:02;;;;;;;18.50;2.55;;;;;;;11.59;100.00;100033.56;5090016;28;20036;-81
2023/10/30 09:41:28;;;;;;;14.38;3.35;;;;;;;11.55;100.00;100042.88;5090438;28;20368;-81
2023/10/30 09:43:56;;;;;;;15.90;3.00;;;;;;;11.40;100.00;100037.34;5092525;28;20523;-81
2023/10/30 09:52:54;;;;;;;21.88;2.55;;;;;;;11.52;100.00;100025.38;5094474;28;20483;-80
2023/10/30 09:55:22;;;;;;;15.52;2.47;;;;;;;11.64;100.00;100020.53;5093738;28;20048;-78
2023/10/30 09:57:48;;;;;;;9.65;2.47;;;;;;;11.76;100.00;100021.06;5093826;28;20036;-78
2023/10/30 10:00:14;;;;;;;14.18;2.65;;;;;;;11.86;100.00;100015.56;5092732;28;20044;-79
2023/10/30 10:02:43;;;;;;;9.68;1.92;;;;;;;11.88;100.00;100018.88;5093864;28;20081;-79
2023/10/30 10:05:10;;;;;;;13.45;2.55;;;;;;;11.71;100.00;100016.22;5093816;28;20448;-78
2023/10/30 10:07:35;;;;;;;11.57;2.60;;;;;;;11.70;100.00;100008.41;5092588;28;20123;-81
2023/10/30 10:10:08;;;;;;;18.55;2.90;;;;;;;11.77;100.00;100010.22;5093698;28;20028;-82
2023/10/30 10:12:34;;;;;;;18.80;2.53;;;;;;;11.81;100.00;100006.22;5092542;28;20483;-85
2023/10/30 10:15:06;;;;;;;15.65;2.47;;;;;;;12.00;100.00;100009.56;5093383;28;20024;-82
2023/10/30 10:17:31;;;;;;;12.32;2.80;;;;;;;12.17;100.00;100011.22;5093512;28;20119;-78
2023/10/30 10:20:04;;;;;;;13.95;3.42;;;;;;;12.28;100.00;100012.69;5093629;28;20055;-81
2023/10/30 10:22:30;;;;;;;18.73;3.35;;;;;;;12.37;100.00;100023.34;5093509;28;20039;-79
2023/10/30 10:24:56;;;;;;;16.98;3.45;;;;;;;12.37;100.00;100032.19;5092264;28;20036;-82
2023/10/30 10:27:24;;;;;;;11.48;3.03;;;;;;;12.50;100.00;100023.66;5093406;28;20505;-79
2023/10/30 10:29:54;;;;;;;16.35;3.35;;;;;;;12.43;100.00;100033.34;5093095;28;20471;-82
2023/10/30 10:32:29;;;;;;;14.18;2.78;;;;;;;12.38;100.00;100017.84;5091865;28;20070;-77
2023/10/30 10:35:02;;;;;;;10.88;2.90;;;;;;;12.31;100.00;99999.00;5093330;28;20036;-78
2023/10/30 10:37:29;;;;;;;18.75;3.53;;;;;;;12.21;100.00;99994.88;5093289;28;20436;-79
2023/10/30 10:39:55;;;;;;;19.27;3.08;;;;;;;12.30;100.00;99981.34;5093418;28;20109;-78
2023/10/30 10:42:24;;;;;;;14.60;3.30;;;;;;;12.28;100.00;99991.34;5093151;28;20115;-79
2023/10/30 10:44:52;;;;;;;14.82;3.00;;;;;;;12.17;100.00;99997.06;5093167;28;20028;-78
2023/10/30 10:47:19;;;;;;;15.43;3.65;;;;;;;12.03;100.00;100005.75;5092524;28;20026;-79
2023/10/30 10:49:45;;;;;;;19.92;3.38;;;;;;;11.97;100.00;100016.09;5093005;28;20057;-78
2023/10/30 10:52:14;;;;;;;22.38;3.50;;;;;;;12.02;100.00;100022.72;5093241;28;20071;-78
2023/10/30 10:54:52;;;;;;;16.08;3.35;;;;;;;12.03;100.00;100021.75;5091985;28;20034;-78
2023/10/30 10:57:20;;;;;;;13.52;2.75;;;;;;;12.07;100.00;100026.56;5093577;28;20039;-78
2023/10/30 10:59:53;;;;;;;12.10;3.20;;;;;;;12.17;100.00;100008.56;5093424;28;20040;-79
2023/10/30 11:02:22;;;;;;;13.05;2.92;;;;;;;12.30;100.00;100002.69;5093495;28;20024;-76
2023/10/30 11:04:50;;;;;;;20.48;3.72;;;;;;;12.43;100.00;100007.47;5093567;28;20027;-88
2023/10/30 11:07:24;;;;;;;14.50;3.58;;;;;;;12.50;100.00;100011.13;5091206;28;20024;-79
2023/10/30 11:09:55;;;;;;;15.85;3.05;;;;;;;12.38;100.00;100009.84;5093022;28;20093;-77
2023/10/30 11:12:31;;;;;;;12.40;3.38;;;;;;;12.35;100.00;100020.84;5091979;28;20085;-78
2023/10/30 11:15:01;;;;;;;10.70;3.00;;;;;;;12.19;100.00;100005.72;5092597;28;20066;-81
2023/10/30 11:17:27;;;;;;;11.40;2.90;;;;;;;12.15;100.00;99991.03;5092710;28;20028;-78
2023/10/30 11:20:10;;;;;;;24.83;4.20;;;;;;;12.25;100.00;100001.53;5092722;28;20270;-78
2023/10/30 11:22:37;;;;;;;17.05;2.90;;;;;;;12.27;100.00;100008.38;5091587;28;20101;-79